ACT        NSW        VIC        QLD        SA        WA        TAS        NT        INFO        CALC            by VK5ZD

  Atmospheric Gas Attenuation - ITU Rec 676-11   --------------- db/100km ---------------
SA Stations Date Time Temp RH % AH g/m3 Dew Point Wind Direction Speed kph Gust kph Barometer mB Rainfall Since 9am 24GHz 47GHz 76GHz 122GHz 134GHz 241GHz
Adelaide (West Terrace / Ngayirdapira) 03 08:20 17.2 54 7.91 7.8 0 0 1021.6 0 18.0 24.2 35.9 93.9 86.2 296.2
Adelaide Airport 03 08:20 17.8 55 8.35 8.6 15 22 1021.8 0 18.9 24.7 37.3 97.6 91.0 313.1
Cape Borda 03 08:20 15.3 75 9.79 10.9 15 19 1022.9 0 22.0 27.8 44.3 116.3 113.1 390.1
Cape Jaffa 03 08:20 15.3 66 8.62 9 13 13 1013.1 0 19.6 25.5 39.1 102.7 96.8 333.0
Cape Willoughby 03 08:20 15.9 71 9.61 10.6 9 9 1013.1 0 21.6 26.9 42.8 112.4 109.0 375.8
Ceduna 03 08:20 15.6 61 8.11 8.1 24 28 1021 0 18.5 24.9 37.3 97.8 90.5 310.9
Clare 03 08:20 13.9 64 7.67 7.2 11 17 1019.6 0 17.6 24.6 36.4 95.2 86.7 297.4
Cleve Airport 03 08:20 15.8 65 8.75 9.2 24 30 1021.4 0 19.8 25.9 39.8 104.3 98.5 339.0
Coober Pedy Airport 03 08:20 22.8 45 9.14 10.3 20 24 1016.3 0 20.3 24.3 37.7 98.8 94.4 325.5
Coonawarra 03 08:20 15.6 68 9.04 9.8 13 15 1021.7 0 20.4 26.4 41.0 107.6 102.6 353.3
Cultana (Defence) 03 08:20 15.3 64 8.36 8.5 26 33 1013.1 0 19.0 25.1 38.1 100.0 93.4 321.2
Cummins Airport 03 08:20 17.6 58 8.7 9.2 19 22 1022.2 0 19.6 25.3 38.7 101.5 95.7 329.4
Edinburgh 03 08:20 16.4 58 8.09 8.1 9 11 1021.9 0 18.4 24.7 36.9 96.7 89.4 307.2
Edithburgh 03 08:20 17.9 62 9.47 10.7 7 9 1013.1 0 21.2 26.1 41.2 108.1 104.4 360.0
Ernabella/Pukatja 03 08:20 27.3 32 8.37 9.2 11 13 1013.7 0 18.5 22.0 32.9 86.3 80.5 277.5
Hindmarsh Island 03 08:20 17 68 9.84 11.1 7 7 1021.7 0 22.1 27.3 43.5 114.2 111.2 383.7
Kadina 03 08:20 17.1 58 8.44 8.8 28 32 1021.5 0 19.1 25.0 37.9 99.4 93.0 319.8
Keith West 03 08:20 15.6 61 8.11 8.1 9 11 1013.1 0 18.5 24.6 37.0 97.0 89.9 308.9
Kingscote 03 08:20 16.5 68 9.55 10.6 9 13 1022.5 0 21.5 27.0 42.6 111.9 108.2 372.9
Kuitpo 03 08:20 15 65 8.33 8.5 11 13 1019.7 0 18.9 25.4 38.4 100.7 93.9 322.9
Lameroo Aws 03 08:20 15.7 59 7.89 7.7 19 22 1013.1 0 18.0 24.2 36.1 94.6 87.0 298.8
Leigh Creek 03 08:20 24.8 30 6.83 6.1 30 32 1015.3 0 15.4 20.6 28.9 75.4 66.2 226.9
Loxton 03 08:20 15.5 58 7.67 7.3 17 19 1021 0 17.5 24.2 35.7 93.4 85.0 291.8
Marree Airport 03 08:20 26.2 40 9.85 11.5 22 24 1015.6 0 21.6 24.4 38.6 101.3 98.6 340.7
Minlaton Airport 03 08:20 18.5 49 7.75 7.6 17 20 1022.1 0 17.6 23.6 34.7 90.9 82.9 284.8
Minnipa Rs 03 08:20 14.4 69 8.53 8.8 30 35 1020.7 0 19.4 25.9 39.5 103.7 97.3 334.7
Moomba Airport 03 08:20 30.5 30 9.35 11 22 24 1014.1 0 20.4 22.6 34.9 91.6 87.9 303.7
Mount Crawford 03 08:20 12.2 75 8.09 7.9 28 35 1019.4 0 18.6 25.8 38.8 101.7 94.1 323.2
Mount Gambier 03 08:20 15.7 61 8.16 8.2 9 11 1021.6 0 18.6 25.0 37.5 98.2 91.0 312.9
Mount Lofty 03 08:20 11.8 76 8 7.7 9 15 1013.1 0 18.4 25.5 38.4 100.6 92.9 319.0
Naracoorte 03 08:20 15.2 71 9.22 10 7 9 1021.6 0 20.8 26.8 42.0 110.1 105.5 363.4
Noarlunga 03 08:20 17.8 55 8.35 8.6 9 11 1013.1 0 18.9 24.4 36.9 96.8 90.4 310.9
Nullarbor 03 08:20 16.5 95 13.34 15.7 32 39 1020.9 0 29.6 33.5 58.9 155.2 161.5 559.1
Nuriootpa 03 08:20 14.7 68 8.56 8.9 17 20 1021 0 19.5 25.9 39.5 103.6 97.4 334.9
Oodnadatta 03 08:20 27 39 10.04 11.9 28 30 1014 0 22.0 24.4 38.8 102.0 99.7 344.6
Padthaway 03 08:20 14.3 70 8.6 8.9 9 9 1013.1 0 19.6 25.7 39.5 103.8 97.8 336.3
Pallamana 03 08:20 17.2 58 8.49 8.9 11 13 1022 0 19.2 25.1 38.1 99.8 93.5 321.7
Parafield 03 08:20 17.6 57 8.55 9 13 17 1021.7 0 19.3 25.0 38.1 99.9 93.8 322.6
Parawa West 03 08:20 14.2 80 9.77 10.9 13 15 1013.1 0 22.1 27.7 44.4 116.6 113.6 391.7
Parndana 03 08:20 16.3 69 9.57 10.6 7 9 1013.1 0 21.5 26.7 42.4 111.4 107.9 372.0
Point Avoid 03 08:20 16.8 78 11.15 12.9 15 19 1013.1 0 24.9 29.2 48.6 128.0 128.5 444.1
Port Augusta 03 08:20 17.6 54 8.1 8.2 26 28 1019.2 0 18.3 24.3 36.3 95.1 88.0 302.3
Port Lincoln Airport 03 08:20 18.1 56 8.65 9.2 13 15 1022.7 0 19.5 25.1 38.3 100.4 94.5 325.3
Port Pirie Airport Aws 03 08:20 17.1 53 7.71 7.5 28 32 1019.8 0 17.5 23.8 35.1 91.8 83.7 287.5
Robe Airport 03 08:20 15.9 69 9.34 10.2 6 9 1013.1 0 21.1 26.5 41.7 109.5 105.4 363.2
Roseworthy 03 08:20 16.2 63 8.69 9.2 9 13 1021.3 0 19.7 25.6 39.3 103.1 97.2 334.6
Roxby Downs 03 08:20 21.3 43 8.01 8.2 22 26 1016.7 0 18.0 23.1 34.3 89.8 82.7 284.5
Snowtown 03 08:20 15.4 63 8.28 8.4 15 19 1021.1 0 18.8 25.2 38.1 99.8 92.9 319.3
Stenhouse Bay 03 08:20 17.2 64 9.37 10.5 15 17 1013.1 0 21.1 26.1 41.1 108.0 104.0 358.7
Strathalbyn 03 08:20 17.1 52 7.57 7.2 6 6 1021.6 0 17.2 23.7 34.6 90.6 82.2 281.9
Tarcoola 03 08:20 19.2 49 8.08 8.2 13 15 1019.6 0 18.2 23.8 35.5 93.1 86.0 295.6
Whyalla 03 08:20 15.5 68 8.99 9.6 22 30 1019.9 0 20.3 26.3 40.8 107.0 101.9 350.9
Woomera 03 08:20 18.2 50 7.77 7.6 24 28 1017.9 0 17.6 23.6 34.8 91.0 83.2 285.7
Wudinna Airport 03 08:20 14.9 71 9.05 9.7 15 19 1021.9 0 20.5 26.6 41.4 108.7 103.7 356.9
Yunta 03 08:20 14.4 60 7.42 6.9 17 20 1013.1 0 17.0 23.9 34.9 91.4 82.5 282.9

Last Refresh: 03-Dec-2021 08:34:04

Bureau of Meteorology